Nearby METAR Reports

 

KORH - Worcester, Massachusetts, USA
Distance from station: NW 4mi, 7km
Updated: Fri, 28-Jul-2017 2:12am EDT
Mist, Overcast
Mist, Overcast
 Wind from W
Wind: W 8 mph , 13 km/h
Temperature: 64°F , 18°C
Dew Point: 63°F , 17°C
Humidity: 94%
Barometer: 29.88 inHg , 1011.9 hPa
Summary: Mist
Clouds: Overcast
Visibility: 6 miles , 10 km
Cloud details: Overcast 500 ft
2017/07/28 06:12 KORH 280612Z AUTO 27007KT 6SM BR OVC005 18/17 A2988 RMK AO2 CIG 002V008 T01830172
KBOS - Boston, Massachusetts, USA
Distance from station: ENE 42mi, 68km
Updated: Fri, 28-Jul-2017 1:54am EDT
Few Clouds
Few Clouds
 Wind from SW
Wind: SW 8 mph , 13 km/h
Temperature: 66°F , 19°C
Dew Point: 66°F , 19°C
Humidity: 100%
Barometer: 29.83 inHg , 1010.2 hPa
Clouds: Few Clouds
Visibility: 10 miles , 16 km
Cloud details: Few Clouds 1100 ft
2017/07/28 05:54 KBOS 280554Z 22007KT 10SM FEW011 19/19 A2983 RMK AO2 SLP102 T01940189 10211 20194 56009
 
KCQX - Chatham, Massachusetts, USA
Distance from station: SE 102mi, 164km
Updated: Fri, 28-Jul-2017 2:10am EDT
Overcast
Overcast
 Wind from SW
Wind: SW 7 mph , 11 km/h
Temperature: 70°F , 21°C
Dew Point: 68°F , 20°C
Humidity: 94%
Barometer: 29.86 inHg , 1011.2 hPa
Clouds: Overcast
Visibility: 10 miles , 16 km
Cloud details: Overcast 900 ft
2017/07/28 06:10 KCQX 280610Z AUTO 23006KT 10SM OVC009 21/20 A2986 RMK AO2 T02110200
KMVY - Marthas Vineyard, Massachusetts, USA
Distance from station: SE 84mi, 135km
Updated: Fri, 28-Jul-2017 2:29am EDT
Overcast
Overcast
 Wind from SW
Wind: SW 7 mph , 11 km/h
Temperature: 70°F , 21°C
Dew Point: 66°F , 19°C
Humidity: 88%
Barometer: 29.86 inHg , 1011.2 hPa
Clouds: Overcast
Visibility: 10 miles , 16 km
Cloud details: Overcast 900 ft
2017/07/28 06:29 KMVY 280629Z AUTO 23006KT 10SM OVC009 21/19 A2986 RMK AO2 CIG 008V012 T02060194
 
KPVC - Provincetown, Massachusetts, USA
Distance from station: NNW 85mi, 136km
Updated: Fri, 28-Jul-2017 1:56am EDT
Partly cloudy
Partly cloudy
 Wind from SW
Wind: SW 10 mph , 17 km/h
Temperature: 64°F , 18°C
Dew Point: 63°F , 17°C
Humidity: 94%
Barometer: 29.85 inHg , 1010.8 hPa
Clouds: Partly cloudy
Visibility: 10 miles , 16 km
Cloud details: Few Clouds 4100 ft
Partly cloudy 6000 ft
2017/07/28 05:56 KPVC 280556Z AUTO 22009KT 10SM FEW041 SCT060 18/17 A2985 RMK AO2 SLP106 60000 T01830172 10183 20178 58012
KAQW - Savoy, Massachusetts, USA
Distance from station: NNW 66mi, 106km
Updated: Fri, 28-Jul-2017 2:01am EDT
Mist, Overcast
Mist, Overcast
 Wind from calm
Wind: Calm
Temperature: 63°F , 17°C
Dew Point: 63°F , 17°C
Humidity: 100%
Barometer: 29.88 inHg , 1011.9 hPa
Summary: Mist
Clouds: Overcast
Visibility: 6 miles , 10 km
Cloud details: Mostly cloudy 300 ft
Overcast 2200 ft
2017/07/28 06:01 KAQW 280601Z AUTO 00000KT 6SM BR BKN003 OVC022 17/17 A2988 RMK AO2 T01720167
 
KIZG - Fryeburg, Maine, USA
Distance from station: NNE 133mi, 214km
Updated: Fri, 28-Jul-2017 1:54am EDT
Clear
Clear
 Wind from calm
Wind: Calm
Temperature: 61°F , 16°C
Dew Point: 61°F , 16°C
Humidity: 100%
Barometer: 29.81 inHg , 1009.5 hPa
Clouds: Clear
Visibility: 10 miles , 16 km
2017/07/28 05:54 KIZG 280554Z AUTO 00000KT 10SM CLR 16/16 A2981 RMK AO2 SLP093 T01610161 10206 20161 58005
KMWN - Mt Washington, New Hampshire, USA
Distance from station: NNE 146mi, 234km
Updated: Fri, 28-Jul-2017 1:50am EDT
Light rain, Showers, Fog, Overcast
Light rain, Showers, Fog, Overcast
 Wind from WNW
Wind: WNW 41 mph , 67 km/h, Gust: 49 mph , 80 km/h
Temperature: 48°F , 9°C
Wind Chill: 38°F , 3°C
Dew Point: 48°F , 9°C
Humidity: 100%
Summary: Light rain, Showers, Fog
Clouds: Overcast
Visibility: 0 miles , 0 km
Cloud details: Overcast 0 ft
2017/07/28 05:50 KMWN 280550Z 30036G43KT 0SM -SHRA FG VV000 09/09 RMK 60005 10101 20083
 
KBML - Berlin, New Hampshire, USA
Distance from station: NNE 160mi, 257km
Updated: Fri, 28-Jul-2017 1:52am EDT
Mist, Mostly cloudy
Mist, Mostly cloudy
 Wind from calm
Wind: Calm
Temperature: 57°F , 14°C
Dew Point: 55°F , 13°C
Humidity: 94%
Barometer: 29.83 inHg , 1010.2 hPa
Summary: Mist
Clouds: Mostly cloudy
Visibility: 6 miles , 10 km
Cloud details: Few Clouds 200 ft
Mostly cloudy 3100 ft
2017/07/28 05:52 KBML 280552Z AUTO 00000KT 6SM BR FEW002 BKN031 14/13 A2983 RMK AO2 SLP100 T01440128 10183 20133 58003